Time;durP1;ratioP1;P1;durP2;ratioP2;P2;SDS_P1;SDS_P2;PMS_P1;PMS_P2;Temp;Humidity;BMP_temperature;BMP_pressure;BME280_temperature;BME280_humidity;BME280_pressure;Samples;Min_cycle;Max_cycle;Signal;HPM_P1;HPM_P2
2021/06/18 00:00:29;;;;;;;4.50;3.70;;;;;;;14.28;67.01;101008.73;92933;1214;66679;-70
2021/06/18 00:03:00;;;;;;;4.60;3.60;;;;;;;14.28;66.99;101000.58;92952;1214;70827;-68
2021/06/18 00:05:10;;;;;;;6.10;3.20;;;;;;;14.29;67.12;100999.52;92929;1214;85468;-69
2021/06/18 00:07:18;;;;;;;5.90;3.60;;;;;;;14.29;67.51;101002.23;92957;1214;75751;-69
2021/06/18 00:09:25;;;;;;;4.30;3.50;;;;;;;14.29;67.66;101007.67;92894;1214;80947;-68
2021/06/18 00:11:33;;;;;;;4.80;3.60;;;;;;;14.28;67.86;101006.01;92937;1214;67657;-68
2021/06/18 00:13:43;;;;;;;5.70;3.70;;;;;;;14.30;67.72;100995.77;92929;1214;69353;-70
2021/06/18 00:15:54;;;;;;;4.80;3.40;;;;;;;14.32;68.01;101006.46;92918;1214;85515;-70
2021/06/18 00:18:02;;;;;;;5.40;3.70;;;;;;;14.31;68.02;101000.15;92951;1214;74623;-69
2021/06/18 00:20:15;;;;;;;4.80;3.90;;;;;;;14.32;68.11;101007.31;92948;1214;82173;-68
2021/06/18 00:22:23;;;;;;;4.50;3.60;;;;;;;14.30;68.13;101003.92;92918;1214;67801;-69
2021/06/18 00:24:30;;;;;;;6.10;3.60;;;;;;;14.29;68.24;100996.80;92855;1214;68911;-69
2021/06/18 00:26:41;;;;;;;5.50;3.80;;;;;;;14.32;68.05;100998.31;92925;1214;84175;-69
2021/06/18 00:28:49;;;;;;;5.60;4.00;;;;;;;14.29;68.32;100996.80;92873;1214;74615;-69
2021/06/18 00:30:57;;;;;;;4.40;3.30;;;;;;;14.29;68.37;100996.80;92841;1214;80089;-69
2021/06/18 00:33:05;;;;;;;7.50;4.20;;;;;;;14.29;68.39;101009.54;92937;1214;66429;-68
2021/06/18 00:35:14;;;;;;;4.50;3.60;;;;;;;14.27;68.54;101004.32;92814;1215;69346;-69
2021/06/18 00:37:22;;;;;;;5.90;3.70;;;;;;;14.27;68.63;101007.03;92869;1214;84470;-68
2021/06/18 00:39:30;;;;;;;4.00;3.40;;;;;;;14.26;68.54;101002.63;92911;1214;75737;-69
2021/06/18 00:41:37;;;;;;;5.50;4.00;;;;;;;14.28;68.73;101002.45;92921;1214;81837;-71
2021/06/18 00:43:45;;;;;;;7.00;3.80;;;;;;;14.26;68.88;101018.09;92865;1214;66699;-70
2021/06/18 00:45:53;;;;;;;4.60;3.40;;;;;;;14.26;68.89;101008.06;92945;1214;68355;-71
2021/06/18 00:48:02;;;;;;;4.80;3.40;;;;;;;14.20;69.04;101001.55;92907;1214;86206;-69
2021/06/18 00:50:14;;;;;;;8.80;4.20;;;;;;;14.16;69.03;101000.28;92936;1214;75846;-69
2021/06/18 00:52:22;;;;;;;4.50;3.60;;;;;;;14.14;68.80;101001.52;92925;1214;80859;-69
2021/06/18 00:54:35;;;;;;;7.80;3.90;;;;;;;14.13;68.88;101002.54;92932;1214;68084;-70
2021/06/18 00:56:43;;;;;;;5.70;3.50;;;;;;;14.10;68.83;100997.50;92938;1214;68832;-71
2021/06/18 00:58:52;;;;;;;5.40;3.80;;;;;;;14.10;69.04;100997.50;92909;1214;86443;-69
2021/06/18 01:01:00;;;;;;;8.30;5.50;;;;;;;14.05;69.33;101003.53;92924;1214;75156;-68
2021/06/18 01:03:08;;;;;;;6.40;3.90;;;;;;;14.06;69.31;100997.05;92908;1214;82600;-70
2021/06/18 01:05:19;;;;;;;5.80;3.80;;;;;;;14.06;69.33;100997.05;92932;1214;65606;-70
2021/06/18 01:07:32;;;;;;;4.50;4.10;;;;;;;14.07;69.42;100997.89;92941;1214;67755;-70
2021/06/18 01:10:11;;;;;;;7.40;4.10;;;;;;;14.06;69.63;100996.23;92985;1214;83850;-68
2021/06/18 01:12:22;;;;;;;5.40;4.00;;;;;;;14.00;69.81;100997.86;92924;1214;74596;-68
2021/06/18 01:14:37;;;;;;;5.80;3.80;;;;;;;14.01;69.80;100991.37;92858;1214;82319;-69
2021/06/18 01:16:52;;;;;;;4.90;3.70;;;;;;;14.05;69.99;100986.39;92945;1214;66504;-69
2021/06/18 01:19:12;;;;;;;5.60;4.10;;;;;;;14.07;69.94;100985.15;92916;1214;69815;-69
2021/06/18 01:21:32;;;;;;;7.60;4.20;;;;;;;14.07;70.15;100985.15;92925;1214;83958;-69
2021/06/18 01:24:15;;;;;;;5.30;3.80;;;;;;;14.06;69.98;100988.89;92920;1214;75453;-70
2021/06/18 01:26:44;;;;;;;5.90;3.90;;;;;;;14.10;70.12;100986.63;92907;1214;81766;-70
2021/06/18 01:28:54;;;;;;;4.50;3.60;;;;;;;14.10;70.27;100982.05;92909;1214;65549;-70
2021/06/18 01:31:03;;;;;;;5.60;4.00;;;;;;;14.11;70.38;100980.17;92943;1214;68586;-70
2021/06/18 01:33:15;;;;;;;5.20;4.10;;;;;;;14.11;70.38;100982.89;92907;1214;86592;-71
2021/06/18 01:35:25;;;;;;;5.80;4.30;;;;;;;14.13;70.22;100986.23;92943;1214;73904;-70
2021/06/18 01:37:35;;;;;;;7.90;4.20;;;;;;;14.12;70.30;100984.55;92890;1214;82027;-68
2021/06/18 01:39:48;;;;;;;6.10;4.30;;;;;;;14.11;70.29;100983.73;92952;1214;66786;-68
2021/06/18 01:42:00;;;;;;;5.90;4.10;;;;;;;14.11;70.27;100983.73;92959;1214;68455;-69
2021/06/18 01:44:09;;;;;;;7.40;4.10;;;;;;;14.11;70.45;100980.17;92935;1214;86290;-69
2021/06/18 01:46:23;;;;;;;7.10;4.50;;;;;;;14.12;70.69;100977.23;92955;1214;75797;-68
2021/06/18 01:48:33;;;;;;;8.40;4.50;;;;;;;14.11;70.64;100969.30;92873;1214;79824;-70
2021/06/18 01:50:43;;;;;;;6.90;4.30;;;;;;;14.12;70.60;100966.38;92936;1214;68184;-69
2021/06/18 01:52:56;;;;;;;5.20;4.30;;;;;;;14.12;70.81;100968.24;92950;1214;68634;-69
2021/06/18 01:55:07;;;;;;;6.50;4.50;;;;;;;14.10;70.82;100965.73;92881;1214;85405;-70
2021/06/18 01:57:21;;;;;;;5.90;4.40;;;;;;;14.07;70.83;100966.13;92971;1214;75822;-70
2021/06/18 01:59:33;;;;;;;6.40;4.30;;;;;;;14.09;70.72;100974.10;92912;1214;81976;-71
2021/06/18 02:01:47;;;;;;;7.90;4.80;;;;;;;14.09;71.02;100974.91;92976;1214;67052;-70
2021/06/18 02:03:55;;;;;;;6.70;4.70;;;;;;;14.12;70.93;100970.95;92977;1214;69211;-68
2021/06/18 02:06:08;;;;;;;7.50;4.40;;;;;;;14.16;70.79;100978.54;92971;1214;85540;-67
2021/06/18 02:08:17;;;;;;;7.20;4.80;;;;;;;14.17;70.95;100982.91;92958;1214;74697;-70
2021/06/18 02:10:29;;;;;;;6.10;5.00;;;;;;;14.15;71.07;100967.85;92922;1214;81541;-71
2021/06/18 02:12:41;;;;;;;6.30;4.90;;;;;;;14.14;70.97;100974.34;93025;1214;67441;-70
2021/06/18 02:14:50;;;;;;;7.00;5.20;;;;;;;14.14;71.05;100974.34;92868;1214;69577;-70
2021/06/18 02:17:02;;;;;;;5.30;4.30;;;;;;;14.16;71.00;100969.54;93008;1214;85911;-70
2021/06/18 02:19:13;;;;;;;7.10;4.90;;;;;;;14.19;71.10;100969.99;92930;1213;75439;-68
2021/06/18 02:21:23;;;;;;;6.90;5.40;;;;;;;14.21;71.12;100975.21;92927;1214;81492;-67
2021/06/18 02:23:35;;;;;;;7.10;5.00;;;;;;;14.28;71.04;100975.27;92973;1214;66497;-69
2021/06/18 02:25:44;;;;;;;8.50;5.30;;;;;;;14.28;71.03;100980.70;93005;1214;69090;-68
2021/06/18 02:27:54;;;;;;;8.50;6.10;;;;;;;14.29;70.88;100979.64;92983;1214;85102;-69
2021/06/18 02:30:07;;;;;;;8.80;5.60;;;;;;;14.31;70.92;100980.31;92960;1213;76080;-70
2021/06/18 02:32:18;;;;;;;8.30;6.40;;;;;;;14.33;71.18;100983.69;93002;1214;82290;-70
2021/06/18 02:34:26;;;;;;;8.60;6.20;;;;;;;14.38;71.02;100978.48;92950;1214;66442;-71
2021/06/18 02:36:34;;;;;;;7.90;6.40;;;;;;;14.39;71.00;100985.62;93025;1214;68571;-71
2021/06/18 02:38:42;;;;;;;10.20;6.60;;;;;;;14.38;71.04;100990.21;92950;1214;86136;-69
2021/06/18 02:40:50;;;;;;;8.50;6.00;;;;;;;14.40;71.08;100993.56;92962;1213;75310;-70
2021/06/18 02:42:57;;;;;;;6.70;5.80;;;;;;;14.41;71.15;100992.53;92931;1213;80365;-69
2021/06/18 02:45:06;;;;;;;9.60;7.50;;;;;;;14.38;71.19;100990.21;92911;1213;67701;-69
2021/06/18 02:47:22;;;;;;;9.00;6.60;;;;;;;14.40;71.24;100993.56;92961;1214;68333;-70
2021/06/18 02:49:45;;;;;;;7.00;5.20;;;;;;;14.40;71.05;100988.13;92888;1214;84151;-70
2021/06/18 02:51:57;;;;;;;8.30;5.60;;;;;;;14.42;71.21;100983.31;92958;1214;74165;-69
2021/06/18 02:54:20;;;;;;;6.50;5.70;;;;;;;14.47;71.24;100989.02;92854;1214;81948;-68
2021/06/18 02:56:35;;;;;;;8.00;5.80;;;;;;;14.54;71.16;100989.88;92921;1214;65570;-69
2021/06/18 02:58:51;;;;;;;7.10;5.30;;;;;;;14.59;71.20;100992.83;92916;1214;70207;-70
2021/06/18 03:01:02;;;;;;;7.40;5.60;;;;;;;14.65;71.12;100992.03;92898;1214;85410;-69
2021/06/18 03:03:13;;;;;;;7.80;5.80;;;;;;;14.71;71.13;100993.95;92935;1214;75055;-71
2021/06/18 03:05:27;;;;;;;7.30;5.40;;;;;;;14.76;71.20;100994.19;92894;1213;80949;-70
2021/06/18 03:07:38;;;;;;;8.80;6.00;;;;;;;14.82;71.34;101000.70;92945;1214;68069;-69
2021/06/18 03:09:53;;;;;;;8.20;5.40;;;;;;;14.89;71.32;100998.83;92864;1214;68967;-70
2021/06/18 03:12:02;;;;;;;6.10;5.10;;;;;;;14.99;71.45;100996.59;92952;1213;86396;-71
2021/06/18 03:14:13;;;;;;;6.60;5.30;;;;;;;15.08;71.29;101003.52;92925;1214;74651;-69
2021/06/18 03:16:22;;;;;;;6.20;5.00;;;;;;;15.20;71.13;101001.05;92894;1214;82764;-69
2021/06/18 03:18:31;;;;;;;8.70;5.80;;;;;;;15.30;71.40;100996.05;92948;1215;66885;-68
2021/06/18 03:20:43;;;;;;;6.50;5.20;;;;;;;15.40;71.26;100992.94;92994;1213;67519;-69
2021/06/18 03:22:55;;;;;;;9.30;4.80;;;;;;;15.50;71.29;100996.97;92923;1213;86418;-69
2021/06/18 03:25:06;;;;;;;6.50;4.70;;;;;;;15.57;71.17;101006.01;92900;1214;75111;-70
2021/06/18 03:27:15;;;;;;;9.90;5.30;;;;;;;15.92;71.25;101002.05;92958;1214;81642;-69
2021/06/18 03:29:27;;;;;;;6.60;4.70;;;;;;;16.59;70.87;101002.84;92839;1214;67011;-70
2021/06/18 03:31:36;;;;;;;7.60;4.70;;;;;;;17.25;70.21;101003.44;92901;1213;68187;-69
2021/06/18 03:33:46;;;;;;;5.80;4.20;;;;;;;17.86;69.58;100992.74;92877;1214;86814;-68
2021/06/18 03:35:56;;;;;;;4.40;3.90;;;;;;;19.07;68.66;100991.09;92883;1214;76225;-70
2021/06/18 03:38:07;;;;;;;5.30;4.50;;;;;;;20.47;67.32;100996.72;92846;1214;81975;-69
2021/06/18 03:40:18;;;;;;;6.60;4.60;;;;;;;21.80;65.26;100987.35;92877;1213;66192;-69
2021/06/18 03:42:30;;;;;;;4.00;3.60;;;;;;;22.89;63.87;100992.95;92955;1214;69097;-69
2021/06/18 03:44:37;;;;;;;6.10;4.20;;;;;;;23.88;61.86;100988.00;92942;1213;85780;-68
2021/06/18 03:46:47;;;;;;;7.00;3.70;;;;;;;24.72;59.83;100987.25;92928;1214;74204;-70
2021/06/18 03:48:57;;;;;;;5.50;3.30;;;;;;;25.40;57.33;100986.16;92907;1214;82385;-70
2021/06/18 03:51:08;;;;;;;5.30;3.60;;;;;;;26.26;55.83;100976.86;92917;1213;67656;-70
2021/06/18 03:53:19;;;;;;;6.70;3.90;;;;;;;26.89;53.56;100980.09;92963;1213;69630;-69
2021/06/18 03:55:26;;;;;;;5.10;3.60;;;;;;;27.50;51.82;100975.90;92952;1214;87218;-69
2021/06/18 03:57:35;;;;;;;5.90;3.80;;;;;;;28.05;50.13;100976.62;92932;1214;73910;-69
2021/06/18 03:59:45;;;;;;;6.70;3.10;;;;;;;28.48;49.51;100972.89;92881;1214;81355;-70
2021/06/18 04:01:57;;;;;;;5.10;3.40;;;;;;;28.85;48.48;100974.98;92915;1214;66380;-68
2021/06/18 04:04:07;;;;;;;4.60;3.70;;;;;;;29.11;47.10;100983.86;92929;1214;68572;-68
2021/06/18 04:06:16;;;;;;;4.60;3.40;;;;;;;29.42;46.38;100981.52;92912;1214;86240;-68
2021/06/18 04:08:24;;;;;;;4.00;3.20;;;;;;;29.60;45.66;100987.09;92919;1214;75351;-68
2021/06/18 04:10:32;;;;;;;4.20;3.10;;;;;;;29.78;44.43;100986.23;92917;1214;80950;-69
2021/06/18 04:12:46;;;;;;;4.70;3.20;;;;;;;29.97;43.73;100985.44;92932;1214;65838;-69
2021/06/18 04:14:55;;;;;;;3.70;2.80;;;;;;;30.20;42.72;100995.61;92893;1213;68829;-70
2021/06/18 04:17:07;;;;;;;3.90;3.10;;;;;;;30.38;42.45;100987.22;92964;1213;86822;-68
2021/06/18 04:19:18;;;;;;;5.10;3.40;;;;;;;30.80;41.08;100983.34;92905;1213;75106;-68
2021/06/18 04:21:27;;;;;;;4.70;3.00;;;;;;;31.29;40.10;100982.61;93059;1211;82490;-68
2021/06/18 04:23:35;;;;;;;3.90;3.00;;;;;;;31.64;39.00;100983.81;93042;1211;66536;-70
2021/06/18 04:25:43;;;;;;;5.30;3.20;;;;;;;31.75;38.73;100982.42;93052;1211;68071;-70
2021/06/18 04:27:51;;;;;;;5.40;3.00;;;;;;;32.05;38.75;100983.66;93074;1211;86081;-69
2021/06/18 04:30:01;;;;;;;4.90;3.10;;;;;;;32.38;38.26;100984.20;93099;1211;75736;-68
2021/06/18 04:32:10;;;;;;;4.90;3.20;;;;;;;32.72;37.40;100984.38;93075;1211;81635;-68
2021/06/18 04:34:19;;;;;;;4.30;3.00;;;;;;;32.87;36.78;100975.56;93043;1211;67157;-69
2021/06/18 04:36:26;;;;;;;5.20;2.80;;;;;;;33.14;36.41;100980.95;93106;1211;67643;-69
2021/06/18 04:38:40;;;;;;;5.80;3.00;;;;;;;33.30;35.93;100984.09;93089;1211;84689;-68
2021/06/18 04:40:48;;;;;;;5.00;3.30;;;;;;;33.58;35.95;100982.69;93108;1211;74263;-68
2021/06/18 04:42:55;;;;;;;4.20;3.00;;;;;;;33.76;35.04;100986.34;93094;1211;80416;-69
2021/06/18 04:45:04;;;;;;;4.30;3.00;;;;;;;34.01;34.83;100979.86;93032;1211;66638;-69
2021/06/18 04:47:12;;;;;;;5.50;3.60;;;;;;;34.22;33.95;100978.06;93109;1211;68171;-70
2021/06/18 04:49:19;;;;;;;4.00;2.60;;;;;;;34.40;33.97;100973.20;93045;1211;87086;-70
2021/06/18 04:51:27;;;;;;;4.60;3.20;;;;;;;34.63;33.12;100974.66;93051;1211;75314;-69
2021/06/18 04:53:34;;;;;;;4.70;3.20;;;;;;;35.08;32.29;100971.33;93034;1211;81737;-70
2021/06/18 04:55:44;;;;;;;7.20;3.00;;;;;;;35.11;31.49;100974.27;93093;1211;67906;-69
2021/06/18 04:57:53;;;;;;;5.00;3.10;;;;;;;35.46;30.72;100969.25;93096;1211;68834;-68
2021/06/18 05:00:05;;;;;;;6.50;3.10;;;;;;;35.51;30.51;100969.88;93094;1211;87193;-68
2021/06/18 05:02:13;;;;;;;5.30;3.50;;;;;;;35.87;30.31;100962.81;93090;1211;76421;-68
2021/06/18 05:04:24;;;;;;;4.10;2.90;;;;;;;36.19;29.94;100962.01;93049;1211;81297;-68
2021/06/18 05:06:32;;;;;;;4.30;3.10;;;;;;;36.35;30.09;100954.54;93059;1211;66703;-69
2021/06/18 05:08:39;;;;;;;5.00;2.80;;;;;;;36.83;28.51;100958.62;93036;1211;69668;-69
2021/06/18 05:10:47;;;;;;;4.50;3.00;;;;;;;37.07;28.30;100958.63;93110;1211;84568;-70
2021/06/18 05:12:55;;;;;;;6.30;2.80;;;;;;;37.17;27.57;100963.78;93059;1211;75650;-69
2021/06/18 05:15:03;;;;;;;3.60;2.90;;;;;;;37.63;26.55;100962.44;93078;1211;79997;-68
2021/06/18 05:17:14;;;;;;;4.60;3.20;;;;;;;37.69;26.40;100958.98;93086;1211;65515;-68
2021/06/18 05:19:21;;;;;;;5.20;3.00;;;;;;;37.94;25.84;100956.12;93101;1211;68327;-70
2021/06/18 05:21:29;;;;;;;4.40;2.80;;;;;;;38.50;25.75;100951.20;93092;1211;86265;-69
2021/06/18 05:23:40;;;;;;;4.80;2.90;;;;;;;38.29;24.80;100960.72;93039;1211;74421;-70
2021/06/18 05:25:47;;;;;;;4.40;2.90;;;;;;;38.15;25.45;100960.35;93068;1211;80740;-70
2021/06/18 05:27:55;;;;;;;5.40;3.00;;;;;;;38.34;25.02;100956.86;93067;1211;66570;-69
2021/06/18 05:30:03;;;;;;;5.10;2.90;;;;;;;38.94;23.55;100959.25;93030;1211;67830;-69
2021/06/18 05:32:16;;;;;;;6.30;3.00;;;;;;;39.02;23.94;100963.06;93088;1211;85740;-68
2021/06/18 05:34:24;;;;;;;3.70;2.70;;;;;;;39.16;23.20;100966.23;93068;1211;75548;-69
2021/06/18 05:36:34;;;;;;;4.40;3.40;;;;;;;39.35;23.43;100956.98;93099;1211;80576;-69
2021/06/18 05:38:42;;;;;;;4.80;2.80;;;;;;;39.41;23.49;100967.65;93008;1210;66962;-68
2021/06/18 05:40:49;;;;;;;8.50;3.50;;;;;;;39.53;22.10;100966.67;93090;1211;68977;-68
2021/06/18 05:42:57;;;;;;;4.20;3.00;;;;;;;39.61;23.08;100970.50;93060;1211;85581;-68
2021/06/18 05:45:05;;;;;;;4.40;3.20;;;;;;;39.74;22.76;100970.02;93080;1211;74543;-68
2021/06/18 05:47:13;;;;;;;3.40;3.10;;;;;;;39.90;21.82;100955.77;93114;1211;81592;-69
2021/06/18 05:49:24;;;;;;;4.10;2.80;;;;;;;40.19;21.93;100962.86;93044;1211;66988;-67
2021/06/18 05:51:35;;;;;;;4.20;2.50;;;;;;;40.35;21.49;100961.55;93077;1211;70086;-67
2021/06/18 05:53:45;;;;;;;4.80;2.80;;;;;;;40.40;21.89;100966.08;93066;1211;85765;-69
2021/06/18 05:55:57;;;;;;;3.70;2.90;;;;;;;40.51;21.98;100965.11;93081;1211;76258;-69
2021/06/18 05:58:05;;;;;;;4.70;3.30;;;;;;;40.92;21.13;100956.91;93061;1211;81777;-67
2021/06/18 06:00:19;;;;;;;5.30;3.60;;;;;;;40.70;21.28;100963.39;93092;1211;65886;-69
2021/06/18 06:02:27;;;;;;;4.20;3.00;;;;;;;40.92;21.32;100963.41;93128;1211;70013;-68
2021/06/18 06:04:35;;;;;;;4.40;2.90;;;;;;;41.08;20.86;100966.07;93073;1211;85880;-69
2021/06/18 06:06:42;;;;;;;10.80;3.70;;;;;;;41.06;21.01;100968.48;93093;1211;75530;-70
2021/06/18 06:08:52;;;;;;;3.50;2.70;;;;;;;41.01;20.71;100963.96;93050;1211;83043;-67
2021/06/18 06:11:00;;;;;;;3.40;2.70;;;;;;;41.08;20.91;100961.22;93074;1211;65671;-69
2021/06/18 06:13:07;;;;;;;4.60;2.90;;;;;;;41.45;19.61;100963.41;93053;1211;68875;-69
2021/06/18 06:15:16;;;;;;;3.30;2.80;;;;;;;41.75;20.50;100961.41;93028;1211;85689;-68
2021/06/18 06:17:23;;;;;;;6.70;2.80;;;;;;;41.82;19.49;100966.34;93041;1211;73967;-68
2021/06/18 06:19:34;;;;;;;4.60;2.90;;;;;;;42.07;19.71;100956.91;92919;1213;81205;-69
2021/06/18 06:21:46;;;;;;;4.00;3.00;;;;;;;42.29;19.75;100970.17;93015;1211;67206;-69
2021/06/18 06:23:53;;;;;;;;;;;;;;;42.15;19.30;100958.66;92999;1211;68410;-68
2021/06/18 06:26:01;;;;;;;6.10;2.80;;;;;;;42.32;19.30;100960.05;93007;1211;85857;-69
2021/06/18 06:28:11;;;;;;;3.70;2.90;;;;;;;42.17;19.25;100958.25;92971;1211;74893;-69
2021/06/18 06:30:20;;;;;;;5.30;3.30;;;;;;;42.26;19.39;100965.27;92972;1211;81467;-69
2021/06/18 06:32:28;;;;;;;3.60;3.20;;;;;;;42.55;19.26;100962.73;93040;1211;65819;-70
2021/06/18 06:34:36;;;;;;;4.90;3.40;;;;;;;42.64;19.22;100964.02;93039;1211;68063;-68
2021/06/18 06:36:43;;;;;;;4.40;3.00;;;;;;;42.22;19.17;100957.92;92958;1211;85664;-70
2021/06/18 06:38:54;;;;;;;3.10;2.70;;;;;;;42.10;19.61;100958.16;92878;1213;75222;-69
2021/06/18 06:41:01;;;;;;;6.50;3.10;;;;;;;42.32;19.36;100963.70;92977;1211;82519;-67
2021/06/18 06:43:09;;;;;;;6.00;2.90;;;;;;;42.76;19.08;100965.75;92954;1213;65655;-69
2021/06/18 06:45:18;;;;;;;5.20;2.70;;;;;;;42.71;19.36;100963.28;92909;1211;69500;-69
2021/06/18 06:47:29;;;;;;;5.60;2.70;;;;;;;42.85;19.04;100964.22;93034;1211;86266;-71
2021/06/18 06:49:36;;;;;;;5.30;3.20;;;;;;;42.81;19.30;100968.23;92957;1213;74670;-68
2021/06/18 06:51:44;;;;;;;5.00;2.90;;;;;;;42.86;19.33;100962.17;93000;1211;81237;-68
2021/06/18 06:53:51;;;;;;;3.80;3.30;;;;;;;43.05;19.38;100961.94;92955;1213;65807;-67
2021/06/18 06:55:59;;;;;;;3.50;3.00;;;;;;;42.73;19.37;100966.53;93018;1211;69719;-68
2021/06/18 06:58:10;;;;;;;5.00;3.60;;;;;;;42.52;19.32;100969.17;92982;1211;87089;-68
2021/06/18 07:00:20;;;;;;;4.50;3.10;;;;;;;42.60;19.08;100968.05;92994;1211;75421;-71
2021/06/18 07:02:28;;;;;;;4.70;3.30;;;;;;;43.00;19.14;100962.31;92954;1212;80840;-68
2021/06/18 07:04:38;;;;;;;5.10;3.20;;;;;;;43.03;19.33;100964.37;92991;1211;66969;-69
2021/06/18 07:06:46;;;;;;;5.20;3.10;;;;;;;43.49;18.71;100958.19;93029;1211;68147;-69
2021/06/18 07:08:53;;;;;;;5.10;3.40;;;;;;;43.07;18.72;100959.53;92991;1211;85644;-69
2021/06/18 07:11:01;;;;;;;3.90;3.50;;;;;;;43.27;18.60;100960.86;92992;1211;74380;-72
2021/06/18 07:13:09;;;;;;;3.70;2.90;;;;;;;43.38;18.56;100958.92;92932;1213;82496;-68
2021/06/18 07:15:17;;;;;;;4.20;3.10;;;;;;;43.22;18.76;100964.09;93053;1211;65262;-68
2021/06/18 07:17:26;;;;;;;3.90;3.30;;;;;;;43.02;18.17;100968.41;93100;1211;67483;-69
2021/06/18 07:19:34;;;;;;;3.30;2.80;;;;;;;43.02;18.44;100967.63;93032;1211;85905;-72
2021/06/18 07:21:42;;;;;;;5.00;3.30;;;;;;;43.19;18.38;100961.21;93023;1211;75171;-71
2021/06/18 07:23:49;;;;;;;3.50;2.90;;;;;;;42.95;18.81;100964.70;92997;1211;79872;-70
2021/06/18 07:25:58;;;;;;;6.80;3.20;;;;;;;43.36;18.97;100961.36;93055;1211;66022;-68
2021/06/18 07:28:06;;;;;;;5.10;2.90;;;;;;;42.99;19.88;100957.03;92998;1211;69051;-70
2021/06/18 07:30:17;;;;;;;5.60;3.40;;;;;;;43.20;19.46;100952.30;93099;1211;86672;-71
2021/06/18 07:32:28;;;;;;;4.40;3.30;;;;;;;43.39;18.16;100954.05;93029;1211;75376;-68
2021/06/18 07:34:36;;;;;;;3.50;2.70;;;;;;;43.32;18.49;100949.09;93057;1211;81214;-72
2021/06/18 07:36:44;;;;;;;4.50;3.10;;;;;;;43.20;18.35;100943.77;93096;1211;65298;-71
2021/06/18 07:38:51;;;;;;;3.60;2.80;;;;;;;43.36;18.82;100938.59;93054;1211;68597;-70
2021/06/18 07:41:02;;;;;;;4.30;3.10;;;;;;;43.46;18.41;100937.83;92995;1211;86327;-69
2021/06/18 07:43:10;;;;;;;5.20;2.90;;;;;;;43.21;18.55;100936.84;93039;1211;74311;-69
2021/06/18 07:45:18;;;;;;;5.10;3.10;;;;;;;43.35;18.48;100939.01;93094;1211;80995;-71
2021/06/18 07:47:26;;;;;;;4.30;2.70;;;;;;;43.22;18.27;100934.81;93118;1211;65492;-71
2021/06/18 07:49:35;;;;;;;4.00;3.10;;;;;;;42.94;18.28;100926.09;93153;1211;69810;-69
2021/06/18 07:51:42;;;;;;;4.10;3.20;;;;;;;42.95;18.64;100934.25;93105;1211;85488;-69
2021/06/18 07:53:53;;;;;;;4.00;2.80;;;;;;;42.95;18.59;100924.89;93050;1211;75155;-72
2021/06/18 07:56:01;;;;;;;3.10;2.80;;;;;;;42.96;18.81;100920.85;93047;1211;80861;-70
2021/06/18 07:58:10;;;;;;;5.30;3.00;;;;;;;43.09;18.11;100930.68;93087;1211;65360;-68
2021/06/18 08:00:21;;;;;;;4.10;2.90;;;;;;;43.04;18.17;100926.19;93093;1211;69400;-70
2021/06/18 08:02:29;;;;;;;4.30;3.00;;;;;;;42.29;17.81;100921.88;93056;1211;84561;-68
2021/06/18 08:04:37;;;;;;;4.00;3.00;;;;;;;42.26;18.45;100925.49;93043;1211;73785;-70
2021/06/18 08:06:45;;;;;;;3.40;3.00;;;;;;;42.54;18.92;100924.12;93010;1211;81515;-71
2021/06/18 08:08:53;;;;;;;3.60;3.00;;;;;;;42.48;18.36;100920.00;92976;1211;65330;-68
2021/06/18 08:11:01;;;;;;;3.70;2.80;;;;;;;42.58;18.49;100920.11;93024;1211;68308;-68
2021/06/18 08:13:08;;;;;;;3.50;2.80;;;;;;;42.73;18.49;100926.73;93027;1211;85808;-68
2021/06/18 08:15:19;;;;;;;4.00;3.30;;;;;;;42.65;18.12;100919.37;92994;1211;75278;-69
2021/06/18 08:17:33;;;;;;;4.00;3.10;;;;;;;42.34;18.95;100921.51;92992;1213;81578;-68
2021/06/18 08:19:41;;;;;;;4.50;3.00;;;;;;;42.16;18.61;100920.53;92997;1211;67541;-70
2021/06/18 08:21:48;;;;;;;3.80;3.00;;;;;;;42.38;18.96;100932.09;93001;1211;67597;-72
2021/06/18 08:23:56;;;;;;;5.10;3.00;;;;;;;42.65;18.52;100925.88;93025;1211;85665;-72
2021/06/18 08:26:04;;;;;;;3.70;2.60;;;;;;;42.65;17.85;100920.19;92973;1211;75155;-74
2021/06/18 08:28:12;;;;;;;2.90;2.70;;;;;;;42.36;18.78;100920.31;93024;1211;81577;-75
2021/06/18 08:30:24;;;;;;;3.10;2.60;;;;;;;42.54;18.18;100919.28;92977;1211;67344;-75
2021/06/18 08:32:31;;;;;;;3.10;2.50;;;;;;;42.36;18.79;100906.11;93075;1211;70766;-75
2021/06/18 08:34:39;;;;;;;4.80;2.90;;;;;;;42.41;18.41;100919.95;93049;1211;86175;-76
2021/06/18 08:36:47;;;;;;;4.20;3.00;;;;;;;42.34;18.90;100915.00;93050;1211;75324;-75
2021/06/18 08:38:55;;;;;;;3.90;2.80;;;;;;;42.23;18.28;100914.91;93008;1211;82395;-77
2021/06/18 08:41:03;;;;;;;3.60;2.80;;;;;;;42.31;18.29;100908.09;93027;1211;66227;-78
2021/06/18 08:43:11;;;;;;;3.50;3.00;;;;;;;42.16;18.57;100917.70;92998;1211;67517;-70
2021/06/18 08:45:19;;;;;;;3.40;2.80;;;;;;;41.89;18.31;100912.50;93095;1211;85495;-71
2021/06/18 08:47:28;;;;;;;2.80;2.50;;;;;;;41.79;19.29;100905.48;93077;1211;74115;-73
2021/06/18 08:49:36;;;;;;;4.10;2.80;;;;;;;41.74;18.47;100908.67;93109;1211;80545;-70
2021/06/18 08:51:44;;;;;;;3.70;3.30;;;;;;;41.16;18.56;100920.42;93051;1211;66849;-69
2021/06/18 08:53:52;;;;;;;3.40;2.80;;;;;;;41.12;19.32;100913.87;93048;1211;68904;-72
2021/06/18 08:55:59;;;;;;;4.60;2.70;;;;;;;41.23;19.58;100906.33;93068;1211;85998;-70
2021/06/18 08:58:07;;;;;;;2.60;2.40;;;;;;;41.16;19.17;100911.09;93070;1211;75793;-70
2021/06/18 09:00:19;;;;;;;2.90;2.50;;;;;;;40.73;19.81;100901.11;93116;1211;80812;-69
2021/06/18 09:02:31;;;;;;;6.80;3.00;;;;;;;40.66;20.00;100891.69;93032;1211;66429;-69
2021/06/18 09:05:05;;;;;;;3.20;2.90;;;;;;;40.78;20.12;100899.96;93090;1211;68632;-69
2021/06/18 09:07:13;;;;;;;4.50;2.60;;;;;;;40.39;19.55;100899.28;93039;1211;86042;-71
2021/06/18 09:09:27;;;;;;;3.10;2.50;;;;;;;40.03;19.32;100892.13;93113;1211;74427;-72
2021/06/18 09:11:42;;;;;;;4.10;2.80;;;;;;;39.79;20.00;100898.14;93062;1211;81334;-72
2021/06/18 09:13:53;;;;;;;3.40;2.60;;;;;;;39.35;20.82;100889.12;93098;1211;67348;-69
2021/06/18 09:16:02;;;;;;;3.50;2.80;;;;;;;39.20;20.59;100892.84;93023;1211;68977;-77
2021/06/18 09:18:40;;;;;;;4.30;3.10;;;;;;;38.71;20.57;100892.42;93086;1211;86345;-73
2021/06/18 09:24:12;;;;;;;3.50;2.90;;;;;;;37.36;22.64;100881.43;92973;1211;81330;-75
2021/06/18 09:26:29;;;;;;;2.90;2.60;;;;;;;36.80;22.77;100883.27;93019;1211;64903;-74
2021/06/18 09:28:55;;;;;;;5.40;2.60;;;;;;;36.83;23.19;100889.03;93098;1211;67634;-71
2021/06/18 09:31:09;;;;;;;4.30;3.00;;;;;;;36.53;23.69;100891.28;93117;1209;86844;-73
2021/06/18 09:33:25;;;;;;;5.00;3.30;;;;;;;36.45;23.74;100888.54;93091;1211;75403;-71
2021/06/18 09:35:35;;;;;;;3.80;3.30;;;;;;;36.05;23.91;100882.72;92971;1211;81278;-65
2021/06/18 09:37:44;;;;;;;4.10;2.70;;;;;;;35.68;24.96;100883.77;93056;1211;67003;-71
2021/06/18 09:40:16;;;;;;;3.30;3.00;;;;;;;35.66;24.92;100888.89;93061;1211;68742;-65
2021/06/18 09:42:24;;;;;;;3.60;2.80;;;;;;;35.51;24.27;100884.72;93016;1211;84358;-74
2021/06/18 09:44:33;;;;;;;4.00;2.70;;;;;;;35.61;24.86;100886.30;93048;1211;74137;-72
2021/06/18 09:47:05;;;;;;;2.80;2.50;;;;;;;35.64;24.95;100882.80;93056;1211;82286;-73
2021/06/18 09:49:35;;;;;;;2.80;2.40;;;;;;;35.65;24.65;100878.83;93033;1211;67304;-71
2021/06/18 09:51:59;;;;;;;4.20;2.60;;;;;;;35.42;24.56;100886.77;93134;1211;67382;-70
2021/06/18 09:54:20;;;;;;;4.10;2.60;;;;;;;35.28;24.28;100877.80;93106;1211;85240;-71
2021/06/18 09:56:28;;;;;;;3.80;2.70;;;;;;;34.91;23.65;100871.92;93098;1211;74509;-73
2021/06/18 09:58:39;;;;;;;3.30;2.30;;;;;;;34.75;23.89;100867.27;93064;1211;83006;-71
2021/06/18 10:00:47;;;;;;;3.40;2.60;;;;;;;34.83;24.46;100860.77;92989;1211;65537;-74
2021/06/18 10:02:59;;;;;;;3.90;2.90;;;;;;;34.72;24.66;100873.56;93117;1211;69995;-73
2021/06/18 10:05:10;;;;;;;4.00;3.00;;;;;;;34.58;25.24;100856.96;93006;1211;85227;-74
2021/06/18 10:07:21;;;;;;;4.00;2.80;;;;;;;34.52;24.13;100857.45;93133;1211;76383;-72
2021/06/18 10:09:32;;;;;;;2.50;2.20;;;;;;;34.36;24.90;100852.39;92929;1211;81735;-71